sensor_id;sensor_type;location;lat;lon;timestamp;P1;durP1;ratioP1;P2;durP2;ratioP2
9997;SDS011;5038;53.064;8.624;2022-10-17T00:01:09;9.43;;;7.87;;
9997;SDS011;5038;53.064;8.624;2022-10-17T00:03:37;10.73;;;7.30;;
9997;SDS011;5038;53.064;8.624;2022-10-17T00:06:06;9.77;;;7.07;;
9997;SDS011;5038;53.064;8.624;2022-10-17T00:08:37;8.53;;;7.20;;
9997;SDS011;5038;53.064;8.624;2022-10-17T00:11:07;9.13;;;7.10;;
9997;SDS011;5038;53.064;8.624;2022-10-17T00:13:39;8.67;;;7.27;;
9997;SDS011;5038;53.064;8.624;2022-10-17T00:16:07;9.20;;;7.77;;
9997;SDS011;5038;53.064;8.624;2022-10-17T00:18:36;8.07;;;7.37;;
9997;SDS011;5038;53.064;8.624;2022-10-17T00:21:05;8.07;;;7.20;;
9997;SDS011;5038;53.064;8.624;2022-10-17T00:23:33;8.07;;;7.37;;
9997;SDS011;5038;53.064;8.624;2022-10-17T00:26:03;9.20;;;7.57;;
9997;SDS011;5038;53.064;8.624;2022-10-17T00:28:32;9.33;;;8.40;;
9997;SDS011;5038;53.064;8.624;2022-10-17T00:31:01;8.80;;;6.83;;
9997;SDS011;5038;53.064;8.624;2022-10-17T00:33:31;9.00;;;8.10;;
9997;SDS011;5038;53.064;8.624;2022-10-17T00:36:03;9.30;;;7.90;;
9997;SDS011;5038;53.064;8.624;2022-10-17T00:38:33;9.80;;;8.90;;
9997;SDS011;5038;53.064;8.624;2022-10-17T00:41:04;8.90;;;7.80;;
9997;SDS011;5038;53.064;8.624;2022-10-17T00:43:47;9.00;;;7.70;;
9997;SDS011;5038;53.064;8.624;2022-10-17T00:46:17;8.30;;;7.50;;
9997;SDS011;5038;53.064;8.624;2022-10-17T00:48:45;8.63;;;7.50;;
9997;SDS011;5038;53.064;8.624;2022-10-17T00:51:16;9.07;;;7.23;;
9997;SDS011;5038;53.064;8.624;2022-10-17T00:53:47;8.50;;;7.70;;
9997;SDS011;5038;53.064;8.624;2022-10-17T00:56:19;9.10;;;7.50;;
9997;SDS011;5038;53.064;8.624;2022-10-17T00:58:47;8.40;;;7.17;;
9997;SDS011;5038;53.064;8.624;2022-10-17T01:01:16;8.30;;;7.50;;
9997;SDS011;5038;53.064;8.624;2022-10-17T01:03:44;8.40;;;7.60;;
9997;SDS011;5038;53.064;8.624;2022-10-17T01:06:12;9.90;;;8.80;;
9997;SDS011;5038;53.064;8.624;2022-10-17T01:08:41;12.30;;;8.40;;
9997;SDS011;5038;53.064;8.624;2022-10-17T01:11:12;8.90;;;7.70;;
9997;SDS011;5038;53.064;8.624;2022-10-17T01:13:56;8.00;;;7.20;;
9997;SDS011;5038;53.064;8.624;2022-10-17T01:16:31;7.77;;;7.07;;
9997;SDS011;5038;53.064;8.624;2022-10-17T01:19:10;8.60;;;6.80;;
9997;SDS011;5038;53.064;8.624;2022-10-17T01:21:58;8.33;;;7.50;;
9997;SDS011;5038;53.064;8.624;2022-10-17T01:24:35;7.70;;;7.00;;
9997;SDS011;5038;53.064;8.624;2022-10-17T01:30:21;8.47;;;7.67;;
9997;SDS011;5038;53.064;8.624;2022-10-17T01:33:10;11.20;;;8.03;;
9997;SDS011;5038;53.064;8.624;2022-10-17T01:35:45;8.27;;;7.37;;
9997;SDS011;5038;53.064;8.624;2022-10-17T01:38:19;9.30;;;7.70;;
9997;SDS011;5038;53.064;8.624;2022-10-17T01:40:52;9.23;;;7.27;;
9997;SDS011;5038;53.064;8.624;2022-10-17T01:43:28;9.40;;;7.37;;
9997;SDS011;5038;53.064;8.624;2022-10-17T01:46:07;9.10;;;8.30;;
9997;SDS011;5038;53.064;8.624;2022-10-17T01:48:39;8.23;;;7.53;;
9997;SDS011;5038;53.064;8.624;2022-10-17T01:51:12;9.07;;;8.17;;
9997;SDS011;5038;53.064;8.624;2022-10-17T01:53:46;9.37;;;8.40;;
9997;SDS011;5038;53.064;8.624;2022-10-17T01:56:19;8.93;;;8.03;;
9997;SDS011;5038;53.064;8.624;2022-10-17T01:58:51;9.23;;;8.40;;
9997;SDS011;5038;53.064;8.624;2022-10-17T02:01:25;8.60;;;7.90;;
9997;SDS011;5038;53.064;8.624;2022-10-17T02:03:58;9.13;;;8.33;;
9997;SDS011;5038;53.064;8.624;2022-10-17T02:06:28;8.73;;;7.97;;
9997;SDS011;5038;53.064;8.624;2022-10-17T02:09:00;9.23;;;8.33;;
9997;SDS011;5038;53.064;8.624;2022-10-17T02:11:42;9.30;;;8.40;;
9997;SDS011;5038;53.064;8.624;2022-10-17T02:14:20;9.00;;;8.17;;
9997;SDS011;5038;53.064;8.624;2022-10-17T02:16:57;8.83;;;7.93;;
9997;SDS011;5038;53.064;8.624;2022-10-17T02:19:37;9.17;;;8.27;;
9997;SDS011;5038;53.064;8.624;2022-10-17T02:22:16;9.13;;;8.40;;
9997;SDS011;5038;53.064;8.624;2022-10-17T02:24:53;9.73;;;8.20;;
9997;SDS011;5038;53.064;8.624;2022-10-17T02:27:30;8.60;;;7.77;;
9997;SDS011;5038;53.064;8.624;2022-10-17T02:30:05;8.90;;;8.10;;
9997;SDS011;5038;53.064;8.624;2022-10-17T02:32:41;8.67;;;7.87;;
9997;SDS011;5038;53.064;8.624;2022-10-17T02:35:19;8.73;;;7.00;;
9997;SDS011;5038;53.064;8.624;2022-10-17T02:37:49;8.43;;;7.53;;
9997;SDS011;5038;53.064;8.624;2022-10-17T02:40:20;8.83;;;8.07;;
9997;SDS011;5038;53.064;8.624;2022-10-17T02:42:51;8.40;;;7.60;;
9997;SDS011;5038;53.064;8.624;2022-10-17T02:45:21;8.87;;;8.17;;
9997;SDS011;5038;53.064;8.624;2022-10-17T02:47:54;9.17;;;8.27;;
9997;SDS011;5038;53.064;8.624;2022-10-17T02:50:28;9.67;;;8.90;;
9997;SDS011;5038;53.064;8.624;2022-10-17T02:53:06;11.83;;;9.40;;
9997;SDS011;5038;53.064;8.624;2022-10-17T02:55:40;9.53;;;8.73;;
9997;SDS011;5038;53.064;8.624;2022-10-17T02:58:14;9.80;;;8.87;;
9997;SDS011;5038;53.064;8.624;2022-10-17T03:00:46;9.60;;;8.70;;
9997;SDS011;5038;53.064;8.624;2022-10-17T03:03:21;8.70;;;7.80;;
9997;SDS011;5038;53.064;8.624;2022-10-17T03:05:51;8.90;;;8.30;;
9997;SDS011;5038;53.064;8.624;2022-10-17T03:08:23;9.23;;;8.53;;
9997;SDS011;5038;53.064;8.624;2022-10-17T03:10:51;8.50;;;7.80;;
9997;SDS011;5038;53.064;8.624;2022-10-17T03:13:20;10.37;;;9.37;;
9997;SDS011;5038;53.064;8.624;2022-10-17T03:15:49;11.40;;;10.40;;
9997;SDS011;5038;53.064;8.624;2022-10-17T03:18:17;11.70;;;10.80;;
9997;SDS011;5038;53.064;8.624;2022-10-17T03:20:49;14.27;;;11.57;;
9997;SDS011;5038;53.064;8.624;2022-10-17T03:23:18;12.30;;;11.20;;
9997;SDS011;5038;53.064;8.624;2022-10-17T03:25:46;10.70;;;9.80;;
9997;SDS011;5038;53.064;8.624;2022-10-17T03:28:15;10.30;;;9.50;;
9997;SDS011;5038;53.064;8.624;2022-10-17T03:30:43;12.67;;;11.57;;
9997;SDS011;5038;53.064;8.624;2022-10-17T03:33:12;10.37;;;9.47;;
9997;SDS011;5038;53.064;8.624;2022-10-17T03:35:40;10.57;;;9.57;;
9997;SDS011;5038;53.064;8.624;2022-10-17T03:38:10;10.30;;;9.50;;
9997;SDS011;5038;53.064;8.624;2022-10-17T03:40:38;10.80;;;9.23;;
9997;SDS011;5038;53.064;8.624;2022-10-17T03:43:08;9.77;;;8.87;;
9997;SDS011;5038;53.064;8.624;2022-10-17T03:45:39;10.07;;;9.17;;
9997;SDS011;5038;53.064;8.624;2022-10-17T03:48:07;9.80;;;8.90;;
9997;SDS011;5038;53.064;8.624;2022-10-17T03:50:35;10.27;;;9.47;;
9997;SDS011;5038;53.064;8.624;2022-10-17T03:53:03;10.40;;;9.10;;
9997;SDS011;5038;53.064;8.624;2022-10-17T03:55:34;10.30;;;9.20;;
9997;SDS011;5038;53.064;8.624;2022-10-17T03:58:02;10.40;;;9.40;;
9997;SDS011;5038;53.064;8.624;2022-10-17T04:00:30;10.20;;;9.20;;
9997;SDS011;5038;53.064;8.624;2022-10-17T04:02:59;10.10;;;9.03;;
9997;SDS011;5038;53.064;8.624;2022-10-17T04:05:27;9.97;;;8.97;;
9997;SDS011;5038;53.064;8.624;2022-10-17T04:07:55;9.87;;;9.00;;
9997;SDS011;5038;53.064;8.624;2022-10-17T04:10:50;10.93;;;9.97;;
9997;SDS011;5038;53.064;8.624;2022-10-17T04:13:19;10.77;;;9.97;;
9997;SDS011;5038;53.064;8.624;2022-10-17T04:15:52;10.00;;;9.00;;
9997;SDS011;5038;53.064;8.624;2022-10-17T04:18:22;10.73;;;9.60;;
9997;SDS011;5038;53.064;8.624;2022-10-17T04:20:50;10.30;;;9.50;;
9997;SDS011;5038;53.064;8.624;2022-10-17T04:23:20;9.30;;;8.60;;
9997;SDS011;5038;53.064;8.624;2022-10-17T04:25:55;10.57;;;9.77;;
9997;SDS011;5038;53.064;8.624;2022-10-17T04:28:24;10.33;;;9.43;;
9997;SDS011;5038;53.064;8.624;2022-10-17T04:30:57;11.07;;;10.17;;
9997;SDS011;5038;53.064;8.624;2022-10-17T04:33:32;10.30;;;9.27;;
9997;SDS011;5038;53.064;8.624;2022-10-17T04:36:02;10.13;;;9.23;;
9997;SDS011;5038;53.064;8.624;2022-10-17T04:38:35;10.13;;;9.23;;
9997;SDS011;5038;53.064;8.624;2022-10-17T04:41:06;10.70;;;9.80;;
9997;SDS011;5038;53.064;8.624;2022-10-17T04:43:36;9.70;;;8.90;;
9997;SDS011;5038;53.064;8.624;2022-10-17T04:46:05;9.87;;;9.07;;
9997;SDS011;5038;53.064;8.624;2022-10-17T04:48:35;10.20;;;9.20;;
9997;SDS011;5038;53.064;8.624;2022-10-17T04:51:06;10.03;;;9.30;;
9997;SDS011;5038;53.064;8.624;2022-10-17T04:53:45;15.27;;;13.60;;
9997;SDS011;5038;53.064;8.624;2022-10-17T04:56:16;12.30;;;11.30;;
9997;SDS011;5038;53.064;8.624;2022-10-17T04:58:46;11.23;;;10.33;;
9997;SDS011;5038;53.064;8.624;2022-10-17T05:01:17;11.87;;;10.77;;
9997;SDS011;5038;53.064;8.624;2022-10-17T05:03:50;12.37;;;11.30;;
9997;SDS011;5038;53.064;8.624;2022-10-17T05:06:20;11.97;;;10.93;;
9997;SDS011;5038;53.064;8.624;2022-10-17T05:09:09;10.80;;;9.90;;
9997;SDS011;5038;53.064;8.624;2022-10-17T05:11:38;10.50;;;9.70;;
9997;SDS011;5038;53.064;8.624;2022-10-17T05:14:09;10.80;;;9.80;;
9997;SDS011;5038;53.064;8.624;2022-10-17T05:16:37;10.27;;;9.40;;
9997;SDS011;5038;53.064;8.624;2022-10-17T05:19:06;11.40;;;10.40;;
9997;SDS011;5038;53.064;8.624;2022-10-17T05:21:41;11.00;;;10.10;;
9997;SDS011;5038;53.064;8.624;2022-10-17T05:24:10;10.87;;;10.00;;
9997;SDS011;5038;53.064;8.624;2022-10-17T05:26:41;10.67;;;9.60;;
9997;SDS011;5038;53.064;8.624;2022-10-17T05:29:11;10.40;;;9.40;;
9997;SDS011;5038;53.064;8.624;2022-10-17T05:31:44;10.70;;;9.60;;
9997;SDS011;5038;53.064;8.624;2022-10-17T05:34:12;11.00;;;10.00;;
9997;SDS011;5038;53.064;8.624;2022-10-17T05:36:41;13.50;;;12.20;;
9997;SDS011;5038;53.064;8.624;2022-10-17T05:39:10;12.07;;;10.97;;
9997;SDS011;5038;53.064;8.624;2022-10-17T05:41:42;11.60;;;9.80;;
9997;SDS011;5038;53.064;8.624;2022-10-17T05:44:10;10.70;;;9.60;;
9997;SDS011;5038;53.064;8.624;2022-10-17T05:46:43;10.70;;;9.80;;
9997;SDS011;5038;53.064;8.624;2022-10-17T05:49:11;11.27;;;10.27;;
9997;SDS011;5038;53.064;8.624;2022-10-17T05:51:58;11.27;;;10.37;;
9997;SDS011;5038;53.064;8.624;2022-10-17T05:54:29;10.60;;;9.80;;
9997;SDS011;5038;53.064;8.624;2022-10-17T05:56:59;10.73;;;9.80;;
9997;SDS011;5038;53.064;8.624;2022-10-17T05:59:30;10.40;;;9.50;;
9997;SDS011;5038;53.064;8.624;2022-10-17T06:02:05;11.10;;;10.10;;
9997;SDS011;5038;53.064;8.624;2022-10-17T06:04:33;10.90;;;9.90;;
9997;SDS011;5038;53.064;8.624;2022-10-17T06:07:01;11.07;;;10.20;;
9997;SDS011;5038;53.064;8.624;2022-10-17T06:09:31;11.07;;;10.20;;
9997;SDS011;5038;53.064;8.624;2022-10-17T06:12:02;12.80;;;11.60;;
9997;SDS011;5038;53.064;8.624;2022-10-17T06:14:31;12.23;;;10.43;;
9997;SDS011;5038;53.064;8.624;2022-10-17T06:17:01;11.17;;;10.17;;
9997;SDS011;5038;53.064;8.624;2022-10-17T06:19:29;11.90;;;11.00;;
9997;SDS011;5038;53.064;8.624;2022-10-17T06:21:57;12.00;;;11.00;;
9997;SDS011;5038;53.064;8.624;2022-10-17T06:24:27;11.57;;;10.57;;
9997;SDS011;5038;53.064;8.624;2022-10-17T06:27:01;12.10;;;10.83;;
9997;SDS011;5038;53.064;8.624;2022-10-17T06:29:37;13.47;;;12.33;;
9997;SDS011;5038;53.064;8.624;2022-10-17T06:32:06;12.80;;;11.80;;
9997;SDS011;5038;53.064;8.624;2022-10-17T06:34:44;14.00;;;12.50;;
9997;SDS011;5038;53.064;8.624;2022-10-17T06:37:13;12.20;;;11.10;;
9997;SDS011;5038;53.064;8.624;2022-10-17T06:39:44;13.77;;;12.67;;
9997;SDS011;5038;53.064;8.624;2022-10-17T06:42:18;17.80;;;16.17;;
9997;SDS011;5038;53.064;8.624;2022-10-17T06:45:07;14.60;;;13.30;;
9997;SDS011;5038;53.064;8.624;2022-10-17T06:47:43;13.70;;;12.40;;
9997;SDS011;5038;53.064;8.624;2022-10-17T06:50:37;16.53;;;12.43;;
9997;SDS011;5038;53.064;8.624;2022-10-17T06:53:14;20.23;;;11.67;;
9997;SDS011;5038;53.064;8.624;2022-10-17T06:56:08;14.50;;;13.20;;
9997;SDS011;5038;53.064;8.624;2022-10-17T06:58:47;17.53;;;15.87;;
9997;SDS011;5038;53.064;8.624;2022-10-17T07:01:25;12.47;;;11.17;;
9997;SDS011;5038;53.064;8.624;2022-10-17T07:03:59;12.50;;;11.20;;
9997;SDS011;5038;53.064;8.624;2022-10-17T07:06:29;12.77;;;11.67;;
9997;SDS011;5038;53.064;8.624;2022-10-17T07:09:04;11.90;;;10.90;;
9997;SDS011;5038;53.064;8.624;2022-10-17T07:11:35;11.30;;;10.30;;
9997;SDS011;5038;53.064;8.624;2022-10-17T07:14:05;11.83;;;10.83;;
9997;SDS011;5038;53.064;8.624;2022-10-17T07:16:33;16.93;;;15.33;;
9997;SDS011;5038;53.064;8.624;2022-10-17T07:19:17;11.60;;;10.60;;
9997;SDS011;5038;53.064;8.624;2022-10-17T07:21:46;12.30;;;11.10;;
9997;SDS011;5038;53.064;8.624;2022-10-17T07:24:14;11.60;;;10.50;;
9997;SDS011;5038;53.064;8.624;2022-10-17T07:26:51;15.90;;;10.87;;
9997;SDS011;5038;53.064;8.624;2022-10-17T07:29:21;14.13;;;11.47;;
9997;SDS011;5038;53.064;8.624;2022-10-17T07:32:00;12.47;;;11.30;;
9997;SDS011;5038;53.064;8.624;2022-10-17T07:34:32;13.43;;;11.50;;
9997;SDS011;5038;53.064;8.624;2022-10-17T07:37:00;23.90;;;21.33;;
9997;SDS011;5038;53.064;8.624;2022-10-17T07:39:29;12.90;;;11.80;;
9997;SDS011;5038;53.064;8.624;2022-10-17T07:41:57;12.77;;;11.57;;
9997;SDS011;5038;53.064;8.624;2022-10-17T07:44:27;16.13;;;10.30;;
9997;SDS011;5038;53.064;8.624;2022-10-17T07:46:55;10.73;;;9.53;;
9997;SDS011;5038;53.064;8.624;2022-10-17T07:49:23;16.67;;;11.07;;
9997;SDS011;5038;53.064;8.624;2022-10-17T07:51:52;23.10;;;11.80;;
9997;SDS011;5038;53.064;8.624;2022-10-17T07:54:20;10.80;;;9.43;;
9997;SDS011;5038;53.064;8.624;2022-10-17T07:56:48;18.40;;;12.47;;
9997;SDS011;5038;53.064;8.624;2022-10-17T07:59:16;12.67;;;10.50;;
9997;SDS011;5038;53.064;8.624;2022-10-17T08:01:47;10.67;;;9.57;;
9997;SDS011;5038;53.064;8.624;2022-10-17T08:04:15;12.47;;;10.50;;
9997;SDS011;5038;53.064;8.624;2022-10-17T08:06:43;11.77;;;10.57;;
9997;SDS011;5038;53.064;8.624;2022-10-17T08:09:11;16.07;;;11.13;;
9997;SDS011;5038;53.064;8.624;2022-10-17T08:11:40;10.57;;;9.50;;
9997;SDS011;5038;53.064;8.624;2022-10-17T08:14:09;11.13;;;9.97;;
9997;SDS011;5038;53.064;8.624;2022-10-17T08:16:38;11.50;;;9.33;;
9997;SDS011;5038;53.064;8.624;2022-10-17T08:19:08;11.33;;;9.03;;
9997;SDS011;5038;53.064;8.624;2022-10-17T08:21:38;10.23;;;9.23;;
9997;SDS011;5038;53.064;8.624;2022-10-17T08:24:06;9.80;;;8.90;;
9997;SDS011;5038;53.064;8.624;2022-10-17T08:26:35;8.73;;;8.00;;
9997;SDS011;5038;53.064;8.624;2022-10-17T08:29:11;8.07;;;7.37;;
9997;SDS011;5038;53.064;8.624;2022-10-17T08:31:44;8.53;;;7.73;;
9997;SDS011;5038;53.064;8.624;2022-10-17T08:34:24;9.43;;;8.50;;
9997;SDS011;5038;53.064;8.624;2022-10-17T08:36:52;8.57;;;7.80;;
9997;SDS011;5038;53.064;8.624;2022-10-17T08:39:21;8.90;;;8.03;;
9997;SDS011;5038;53.064;8.624;2022-10-17T08:41:56;8.30;;;6.90;;
9997;SDS011;5038;53.064;8.624;2022-10-17T08:44:34;11.47;;;10.37;;
9997;SDS011;5038;53.064;8.624;2022-10-17T08:47:11;9.17;;;8.23;;
9997;SDS011;5038;53.064;8.624;2022-10-17T08:49:45;9.07;;;8.17;;
9997;SDS011;5038;53.064;8.624;2022-10-17T08:52:19;13.73;;;10.37;;
9997;SDS011;5038;53.064;8.624;2022-10-17T08:54:54;9.23;;;7.60;;
9997;SDS011;5038;53.064;8.624;2022-10-17T08:57:25;8.03;;;7.20;;
9997;SDS011;5038;53.064;8.624;2022-10-17T08:59:55;7.93;;;7.23;;
9997;SDS011;5038;53.064;8.624;2022-10-17T09:02:33;7.80;;;6.73;;
9997;SDS011;5038;53.064;8.624;2022-10-17T09:05:28;7.67;;;6.50;;
9997;SDS011;5038;53.064;8.624;2022-10-17T09:08:04;7.33;;;6.63;;
9997;SDS011;5038;53.064;8.624;2022-10-17T09:10:43;6.40;;;5.80;;
9997;SDS011;5038;53.064;8.624;2022-10-17T09:13:23;7.60;;;6.90;;
9997;SDS011;5038;53.064;8.624;2022-10-17T09:16:21;8.10;;;6.60;;
9997;SDS011;5038;53.064;8.624;2022-10-17T09:19:05;7.03;;;6.23;;
9997;SDS011;5038;53.064;8.624;2022-10-17T09:21:41;7.57;;;6.80;;
9997;SDS011;5038;53.064;8.624;2022-10-17T09:24:20;7.67;;;6.97;;
9997;SDS011;5038;53.064;8.624;2022-10-17T09:26:52;7.43;;;6.67;;
9997;SDS011;5038;53.064;8.624;2022-10-17T09:29:23;8.63;;;6.37;;
9997;SDS011;5038;53.064;8.624;2022-10-17T09:32:00;6.87;;;6.13;;
9997;SDS011;5038;53.064;8.624;2022-10-17T09:34:31;7.50;;;6.50;;
9997;SDS011;5038;53.064;8.624;2022-10-17T09:37:01;7.20;;;6.50;;
9997;SDS011;5038;53.064;8.624;2022-10-17T09:39:29;9.70;;;6.30;;
9997;SDS011;5038;53.064;8.624;2022-10-17T09:41:59;10.03;;;7.70;;
9997;SDS011;5038;53.064;8.624;2022-10-17T09:44:29;10.00;;;6.73;;
9997;SDS011;5038;53.064;8.624;2022-10-17T09:47:05;7.60;;;6.20;;
9997;SDS011;5038;53.064;8.624;2022-10-17T09:49:43;7.10;;;6.40;;
9997;SDS011;5038;53.064;8.624;2022-10-17T09:52:14;9.83;;;6.27;;
9997;SDS011;5038;53.064;8.624;2022-10-17T09:54:45;7.77;;;6.67;;
9997;SDS011;5038;53.064;8.624;2022-10-17T09:57:16;6.77;;;6.00;;
9997;SDS011;5038;53.064;8.624;2022-10-17T09:59:46;8.03;;;6.70;;
9997;SDS011;5038;53.064;8.624;2022-10-17T10:02:22;6.93;;;5.80;;
9997;SDS011;5038;53.064;8.624;2022-10-17T10:04:53;7.00;;;5.93;;
9997;SDS011;5038;53.064;8.624;2022-10-17T10:07:34;7.90;;;7.10;;
9997;SDS011;5038;53.064;8.624;2022-10-17T10:10:04;9.03;;;7.10;;
9997;SDS011;5038;53.064;8.624;2022-10-17T10:12:35;7.23;;;6.47;;
9997;SDS011;5038;53.064;8.624;2022-10-17T10:18:01;7.23;;;6.60;;
9997;SDS011;5038;53.064;8.624;2022-10-17T10:20:33;7.40;;;6.67;;
9997;SDS011;5038;53.064;8.624;2022-10-17T10:23:09;7.20;;;6.50;;
9997;SDS011;5038;53.064;8.624;2022-10-17T10:25:54;6.60;;;6.00;;
9997;SDS011;5038;53.064;8.624;2022-10-17T10:28:25;9.70;;;6.20;;
9997;SDS011;5038;53.064;8.624;2022-10-17T10:30:55;6.60;;;6.00;;
9997;SDS011;5038;53.064;8.624;2022-10-17T10:33:28;6.97;;;6.27;;
9997;SDS011;5038;53.064;8.624;2022-10-17T10:35:59;8.10;;;6.10;;
9997;SDS011;5038;53.064;8.624;2022-10-17T10:38:30;7.10;;;6.50;;
9997;SDS011;5038;53.064;8.624;2022-10-17T10:41:01;9.20;;;7.10;;
9997;SDS011;5038;53.064;8.624;2022-10-17T10:43:32;8.70;;;6.37;;
9997;SDS011;5038;53.064;8.624;2022-10-17T10:46:04;6.90;;;6.23;;
9997;SDS011;5038;53.064;8.624;2022-10-17T10:48:48;7.90;;;7.10;;
9997;SDS011;5038;53.064;8.624;2022-10-17T10:51:18;8.93;;;6.40;;
9997;SDS011;5038;53.064;8.624;2022-10-17T10:54:02;7.60;;;6.13;;
9997;SDS011;5038;53.064;8.624;2022-10-17T10:56:37;7.13;;;6.33;;
9997;SDS011;5038;53.064;8.624;2022-10-17T10:59:09;8.70;;;6.60;;
9997;SDS011;5038;53.064;8.624;2022-10-17T11:01:45;7.30;;;6.60;;
9997;SDS011;5038;53.064;8.624;2022-10-17T11:04:25;7.00;;;6.30;;
9997;SDS011;5038;53.064;8.624;2022-10-17T11:07:02;10.47;;;7.53;;
9997;SDS011;5038;53.064;8.624;2022-10-17T11:09:47;7.37;;;6.63;;
9997;SDS011;5038;53.064;8.624;2022-10-17T11:12:20;7.30;;;6.60;;
9997;SDS011;5038;53.064;8.624;2022-10-17T11:14:56;9.37;;;7.00;;
9997;SDS011;5038;53.064;8.624;2022-10-17T11:17:32;9.80;;;6.83;;
9997;SDS011;5038;53.064;8.624;2022-10-17T11:20:09;7.40;;;6.63;;
9997;SDS011;5038;53.064;8.624;2022-10-17T11:22:42;8.27;;;6.77;;
9997;SDS011;5038;53.064;8.624;2022-10-17T11:25:18;11.47;;;7.40;;
9997;SDS011;5038;53.064;8.624;2022-10-17T11:27:55;8.67;;;7.30;;
9997;SDS011;5038;53.064;8.624;2022-10-17T11:30:40;12.17;;;8.43;;
9997;SDS011;5038;53.064;8.624;2022-10-17T11:33:15;9.07;;;8.17;;
9997;SDS011;5038;53.064;8.624;2022-10-17T11:35:52;11.90;;;9.40;;
9997;SDS011;5038;53.064;8.624;2022-10-17T11:38:29;15.53;;;10.70;;
9997;SDS011;5038;53.064;8.624;2022-10-17T11:41:07;11.27;;;10.10;;
9997;SDS011;5038;53.064;8.624;2022-10-17T11:43:39;10.03;;;8.80;;
9997;SDS011;5038;53.064;8.624;2022-10-17T11:46:13;13.23;;;9.60;;
9997;SDS011;5038;53.064;8.624;2022-10-17T11:48:59;10.90;;;9.23;;
9997;SDS011;5038;53.064;8.624;2022-10-17T11:51:36;11.27;;;10.23;;
9997;SDS011;5038;53.064;8.624;2022-10-17T11:54:29;10.37;;;9.37;;
9997;SDS011;5038;53.064;8.624;2022-10-17T11:57:07;10.90;;;9.80;;
9997;SDS011;5038;53.064;8.624;2022-10-17T11:59:52;13.43;;;10.57;;
9997;SDS011;5038;53.064;8.624;2022-10-17T12:02:32;14.00;;;11.33;;
9997;SDS011;5038;53.064;8.624;2022-10-17T12:05:03;12.93;;;11.70;;
9997;SDS011;5038;53.064;8.624;2022-10-17T12:07:44;14.03;;;12.80;;
9997;SDS011;5038;53.064;8.624;2022-10-17T12:10:26;13.37;;;11.97;;
9997;SDS011;5038;53.064;8.624;2022-10-17T12:21:56;12.73;;;11.47;;
9997;SDS011;5038;53.064;8.624;2022-10-17T12:24:58;12.60;;;11.50;;
9997;SDS011;5038;53.064;8.624;2022-10-17T12:27:35;12.67;;;11.67;;
9997;SDS011;5038;53.064;8.624;2022-10-17T12:30:18;12.50;;;11.30;;
9997;SDS011;5038;53.064;8.624;2022-10-17T12:32:56;14.40;;;13.00;;
9997;SDS011;5038;53.064;8.624;2022-10-17T12:35:33;15.73;;;14.33;;
9997;SDS011;5038;53.064;8.624;2022-10-17T12:41:02;13.30;;;12.00;;
9997;SDS011;5038;53.064;8.624;2022-10-17T12:49:41;14.90;;;13.23;;
9997;SDS011;5038;53.064;8.624;2022-10-17T12:52:15;14.07;;;12.87;;
9997;SDS011;5038;53.064;8.624;2022-10-17T12:57:41;15.40;;;13.77;;
9997;SDS011;5038;53.064;8.624;2022-10-17T13:00:16;19.73;;;17.83;;
9997;SDS011;5038;53.064;8.624;2022-10-17T13:02:48;14.97;;;13.47;;
9997;SDS011;5038;53.064;8.624;2022-10-17T13:05:23;15.30;;;13.90;;
9997;SDS011;5038;53.064;8.624;2022-10-17T13:07:55;14.30;;;12.90;;
9997;SDS011;5038;53.064;8.624;2022-10-17T13:10:26;18.23;;;15.27;;
9997;SDS011;5038;53.064;8.624;2022-10-17T13:12:59;27.47;;;15.13;;
9997;SDS011;5038;53.064;8.624;2022-10-17T13:15:35;16.10;;;14.60;;
9997;SDS011;5038;53.064;8.624;2022-10-17T13:18:04;16.73;;;15.03;;
9997;SDS011;5038;53.064;8.624;2022-10-17T13:20:33;16.50;;;14.90;;
9997;SDS011;5038;53.064;8.624;2022-10-17T13:23:02;17.13;;;15.30;;
9997;SDS011;5038;53.064;8.624;2022-10-17T13:25:30;15.87;;;14.13;;
9997;SDS011;5038;53.064;8.624;2022-10-17T13:28:06;17.87;;;16.00;;
9997;SDS011;5038;53.064;8.624;2022-10-17T13:30:38;17.97;;;16.17;;
9997;SDS011;5038;53.064;8.624;2022-10-17T13:33:17;15.87;;;14.47;;
9997;SDS011;5038;53.064;8.624;2022-10-17T13:36:03;17.53;;;15.90;;
9997;SDS011;5038;53.064;8.624;2022-10-17T13:38:33;17.17;;;15.70;;
9997;SDS011;5038;53.064;8.624;2022-10-17T13:41:09;17.63;;;16.13;;
9997;SDS011;5038;53.064;8.624;2022-10-17T13:44:00;17.97;;;16.13;;
9997;SDS011;5038;53.064;8.624;2022-10-17T13:46:33;42.63;;;39.13;;
9997;SDS011;5038;53.064;8.624;2022-10-17T13:49:09;18.67;;;16.90;;
9997;SDS011;5038;53.064;8.624;2022-10-17T13:51:45;17.27;;;15.73;;
9997;SDS011;5038;53.064;8.624;2022-10-17T13:57:03;18.00;;;16.17;;
9997;SDS011;5038;53.064;8.624;2022-10-17T13:59:35;18.30;;;16.57;;
9997;SDS011;5038;53.064;8.624;2022-10-17T14:02:05;17.80;;;16.10;;
9997;SDS011;5038;53.064;8.624;2022-10-17T14:04:40;19.50;;;17.80;;
9997;SDS011;5038;53.064;8.624;2022-10-17T14:07:33;19.97;;;17.97;;
9997;SDS011;5038;53.064;8.624;2022-10-17T14:10:24;18.60;;;16.97;;
9997;SDS011;5038;53.064;8.624;2022-10-17T14:12:54;17.60;;;15.90;;
9997;SDS011;5038;53.064;8.624;2022-10-17T14:15:26;16.60;;;15.10;;
9997;SDS011;5038;53.064;8.624;2022-10-17T14:17:56;17.03;;;15.63;;
9997;SDS011;5038;53.064;8.624;2022-10-17T14:20:32;17.90;;;16.30;;
9997;SDS011;5038;53.064;8.624;2022-10-17T14:23:31;17.30;;;15.77;;
9997;SDS011;5038;53.064;8.624;2022-10-17T14:26:03;15.37;;;14.00;;
9997;SDS011;5038;53.064;8.624;2022-10-17T14:28:40;15.03;;;13.73;;
9997;SDS011;5038;53.064;8.624;2022-10-17T14:31:11;14.10;;;12.80;;
9997;SDS011;5038;53.064;8.624;2022-10-17T14:33:50;13.63;;;12.43;;
9997;SDS011;5038;53.064;8.624;2022-10-17T14:36:20;14.50;;;13.20;;
9997;SDS011;5038;53.064;8.624;2022-10-17T14:38:59;14.00;;;12.80;;
9997;SDS011;5038;53.064;8.624;2022-10-17T14:41:29;14.10;;;12.80;;
9997;SDS011;5038;53.064;8.624;2022-10-17T14:44:13;14.67;;;13.27;;
9997;SDS011;5038;53.064;8.624;2022-10-17T14:46:48;14.23;;;13.07;;
9997;SDS011;5038;53.064;8.624;2022-10-17T14:49:24;13.77;;;12.57;;
9997;SDS011;5038;53.064;8.624;2022-10-17T14:54:54;14.33;;;13.03;;
9997;SDS011;5038;53.064;8.624;2022-10-17T14:57:26;15.57;;;14.27;;
9997;SDS011;5038;53.064;8.624;2022-10-17T15:00:06;16.00;;;14.43;;
9997;SDS011;5038;53.064;8.624;2022-10-17T15:02:37;16.30;;;14.80;;
9997;SDS011;5038;53.064;8.624;2022-10-17T15:05:05;15.77;;;14.47;;
9997;SDS011;5038;53.064;8.624;2022-10-17T15:07:38;16.80;;;15.30;;
9997;SDS011;5038;53.064;8.624;2022-10-17T15:10:09;17.00;;;15.70;;
9997;SDS011;5038;53.064;8.624;2022-10-17T15:12:57;17.50;;;16.00;;
9997;SDS011;5038;53.064;8.624;2022-10-17T15:15:46;17.00;;;15.43;;
9997;SDS011;5038;53.064;8.624;2022-10-17T15:18:17;15.87;;;14.57;;
9997;SDS011;5038;53.064;8.624;2022-10-17T15:20:46;14.43;;;13.23;;
9997;SDS011;5038;53.064;8.624;2022-10-17T15:23:30;15.57;;;13.93;;
9997;SDS011;5038;53.064;8.624;2022-10-17T15:25:59;14.07;;;12.67;;
9997;SDS011;5038;53.064;8.624;2022-10-17T15:28:28;12.90;;;11.80;;
9997;SDS011;5038;53.064;8.624;2022-10-17T15:30:56;13.80;;;12.70;;
9997;SDS011;5038;53.064;8.624;2022-10-17T15:33:24;13.30;;;12.10;;
9997;SDS011;5038;53.064;8.624;2022-10-17T15:35:53;13.07;;;11.97;;
9997;SDS011;5038;53.064;8.624;2022-10-17T15:38:21;13.30;;;12.00;;
9997;SDS011;5038;53.064;8.624;2022-10-17T15:40:49;13.40;;;12.10;;
9997;SDS011;5038;53.064;8.624;2022-10-17T15:43:19;12.93;;;11.80;;
9997;SDS011;5038;53.064;8.624;2022-10-17T15:45:47;13.47;;;12.27;;
9997;SDS011;5038;53.064;8.624;2022-10-17T15:48:17;13.40;;;12.23;;
9997;SDS011;5038;53.064;8.624;2022-10-17T15:50:56;12.93;;;11.60;;
9997;SDS011;5038;53.064;8.624;2022-10-17T15:53:25;14.47;;;13.27;;
9997;SDS011;5038;53.064;8.624;2022-10-17T15:55:53;15.17;;;13.70;;
9997;SDS011;5038;53.064;8.624;2022-10-17T15:58:23;12.50;;;11.40;;
9997;SDS011;5038;53.064;8.624;2022-10-17T16:00:53;13.80;;;12.67;;
9997;SDS011;5038;53.064;8.624;2022-10-17T16:03:21;15.73;;;14.23;;
9997;SDS011;5038;53.064;8.624;2022-10-17T16:05:50;14.03;;;12.73;;
9997;SDS011;5038;53.064;8.624;2022-10-17T16:08:18;15.10;;;13.67;;
9997;SDS011;5038;53.064;8.624;2022-10-17T16:10:46;15.70;;;14.20;;